Yerington, Nevada Weather observations

Data are for observation ending at time listed.
 Day   Time    Ave.   Ave.  Ave.  Vector   Max.   Stn.    Total    Solar   Ave.  
  of    of     Air    Rel.  Wind   Wind    Wind   Baro.  Precip.   Rad.    Soil  
Year   Day     Temp.  Hum.  Speed  Dir.    Gust   Pres.                    Temp. 
2014   (PST)    F      %     mph   deg.    mph     mb.     in.     W/m2     F   
------------------------------------------------------------------------------
 240    9:30   82.0    20    2.4   272      4.8   871.7    0.00     752    74.4
 240    9:40   83.7    18    2.3   331      4.8   871.7    0.00     776    74.9
 240    9:50   83.9    17    2.9   337      5.3   871.6    0.00     797    75.4
 240   10:00   84.7    17    2.7   328      5.7   871.5    0.00     817    76.0
 240   10:10   85.0    17    2.6     9      6.5   871.4    0.00     836    76.7
 240   10:20   85.3    17    2.7    29      6.4   871.3    0.00     851    77.4
 240   10:30   85.5    17    3.4   297      8.6   871.2    0.00     868    78.1
 240   10:40   86.6    17    3.1   354      8.8   871.1    0.00     883    78.8
 240   10:50   87.3    16    2.4    92      6.5   871.0    0.00     893    79.4
 240   11:00   87.7    16    3.2    32      8.1   870.9    0.00     908    80.2
 240   11:10   87.6    15    2.8    59      5.8   870.8    0.00     917    81.0
 240   11:20   88.9    14    2.2    72      4.9   870.6    0.00     926    81.6
 240   11:30   88.8    13    2.3    28      5.2   870.5    0.00     929    82.2
 240   11:40   88.5    13    3.0    99      5.8   870.3    0.00     933    82.9
 240   11:50   88.8    13    3.1    76      6.3   870.2    0.00     935    83.7
 240   12:00   88.8    13    2.7   357      7.8   870.1    0.00     934    84.4
 240   12:10   88.6    12    3.4   264      8.2   869.9    0.00     933    85.1
 240   12:20   89.4    12    3.5     9      8.1   869.7    0.00     931    85.8
 240   12:30   90.1    12    3.8     6      8.2   869.6    0.00     927    86.5
 240   12:40   90.9    11    2.1    86      6.2   869.4    0.00     919    87.1
 240   12:50   91.2    11    3.4    46      9.4   869.2    0.00     907    87.5
 240   13:00   90.9    11    3.2    91      8.0   869.0    0.00     895    88.1
 240   13:10   91.2    11    3.8    98      7.2   868.8    0.00     884    88.8
 240   13:20   91.4    10    3.2    62      8.7   868.7    0.00     872    89.3
 240   13:30   92.3    10    4.1    76      8.7   868.5    0.00     857    89.8
 240   13:40   92.6    11    3.7    42      7.9   868.4    0.00     838    90.2
 240   13:50   93.6    10    2.8    50      8.8   868.3    0.00     820    90.6
 240   14:00   93.2    10    3.5    28      9.2   868.2    0.00     800    91.0
 240   14:10   93.3    10    3.3    31     10.4   868.0    0.00     779    91.5
 240   14:20   94.3    10    2.6    84      8.1   867.9    0.00     756    91.9
 240   14:30   93.8    10    3.2    63      7.1   867.8    0.00     729    92.3
 240   14:40   93.9    10    3.4    39      9.8   867.7    0.00     703    92.7
 240   14:50   93.9    10    3.9    32      9.2   867.6    0.00     677    93.0
 240   15:00   94.2    10    3.0    26      8.0   867.5    0.00     651    93.5
 240   15:10   94.4    10    3.3    46      8.0   867.3    0.00     618    93.8
 240   15:20   94.0    11    3.4    58      9.3   867.2    0.00     587    94.1
 240   15:30   94.3    11    3.8    27      8.4   867.2    0.00     559    94.4
 240   15:40   93.8    11    4.4    12      9.0   867.1    0.00     526    94.7
 240   15:50   93.4    11    3.2   337      6.3   867.0    0.00     496    95.0
 240   16:00   93.9    11    3.2   328      7.2   866.9    0.00     463    95.2
 240   16:10   94.8    10    1.9   360      5.2   866.8    0.00     429    95.5
 240   16:20   94.3    11    2.8     3      6.3   866.6    0.00     391    95.5
 240   16:30   94.3    11    3.2    42      7.2   866.6    0.00     355    95.7
 240   16:40   93.6    10    2.9    37      7.4   866.6    0.00     321    95.8
 240   16:50   93.9    10    2.3    47      6.2   866.5    0.00     287    96.0
 240   17:00   94.0    10    2.2    78      5.2   866.5    0.00     252    96.1
 240   17:10   93.5    10    2.1    62      4.8   866.5    0.00     217    96.3
 240   17:20   93.2    10    1.9    36      4.9   866.4    0.00     184    96.3
 240   17:30   93.0    10    2.1    10      4.5   866.4    0.00     152    96.3
 240   17:40   92.3    11    1.9     9      3.9   866.4    0.00      60    96.2
 240   17:50   90.1    14    2.0   280      3.3   866.4    0.00      74    96.1
 240   18:00   86.6    15    1.8   294      2.7   866.4    0.00      34    96.3
 240   18:10   85.8    16    1.7   351      3.3   866.4    0.00      16    96.5
 240   18:20   85.3    15    1.0   332      2.5   866.5    0.00       9    96.5
 240   18:30   83.2    19    1.1   313      2.6   866.6    0.00       4    96.4
 240   18:40   80.3    20    1.1   266      1.9   866.6    0.00       0    96.4
 240   18:50   78.8    21    0.8   258      2.2   866.7    0.00       0    96.3
 240   19:00   77.8    22    0.0     0      0.0   866.7    0.00       0    96.0
 240   19:10   77.2    22    0.0   250      0.9   866.8    0.00       0    95.8
 240   19:20   78.1    21    1.3     1      3.7   867.0    0.00       0    95.3
 240   19:30   78.4    22    1.9   322      4.3   867.1    0.00       0    94.6
 240   19:40   75.7    25    1.7   320      3.9   867.3    0.00       0    94.1
 240   19:50   75.2    22    0.2   283      2.9   867.4    0.00       0    93.7
 240   20:00   76.6    20    1.3   317      4.0   867.5    0.00       0    93.3
 240   20:10   77.8    20    0.7    16      2.3   867.6    0.00       0    92.9
 240   20:20   77.8    19    1.5    22      3.5   867.8    0.00       0    92.3
 240   20:30   77.7    20    1.5   344      3.1   867.8    0.00       0    91.8
 240   20:40   75.8    22    0.8   334      2.2   867.8    0.00       0    91.5
 240   20:50   74.8    23    1.3     2      3.6   867.9    0.00       0    91.2
 240   21:00   74.9    24    0.5    14      2.8   868.0    0.00       0    91.0
 240   21:10   73.7    26    0.3    20      1.6   868.0    0.00       0    90.8
 240   21:20   72.3    28    0.3    20      1.3   867.9    0.00       0    90.6
 240   21:30   71.6    28    0.4    20      1.3   867.9    0.00       0    90.3
 240   21:40   71.4    29    0.1    38      1.8   867.9    0.00       0    90.1
 240   21:50   72.7    30    2.5    80      4.3   868.0    0.00       0    89.7
 240   22:00   72.4    30    0.4    60      1.8   868.0    0.00       0    89.0
 240   22:10   71.8    31    0.7    66      2.9   868.0    0.00       0    88.9
 240   22:20   69.7    35    1.7    80      3.9   868.0    0.00       0    88.6
 240   22:30   66.7    41    2.7   206      7.0   868.0    0.00       0    88.4
 240   22:40   66.8    38    3.9   189      6.7   868.1    0.00       0    88.2
 240   22:50   67.0    37    2.9   172      5.0   868.2    0.00       0    87.9
 240   23:00   66.9    37    1.7   179      2.3   868.1    0.00       0    87.6
 240   23:10   66.6    37    1.4   178      1.9   868.1    0.00       0    87.4
 240   23:20   66.3    38    2.0   194      3.6   868.0    0.00       0    87.1
 240   23:30   66.3    38    2.4   163      3.9   868.0    0.00       0    86.8
 240   23:40   66.1    38    2.1   108      4.1   868.0    0.00       0    86.5
 240   23:50   65.2    40    0.8   144      2.8   867.9    0.00       0    86.2
 241    0:00   65.7    38    1.6   179      4.8   867.8    0.00       0    85.9
 241    0:10   66.5    37    2.8   192      4.1   867.7    0.00       0    85.7
 241    0:20   65.9    39    2.7   196      4.5   867.7    0.00       0    85.2
 241    0:30   63.5    45    1.7   187      4.3   867.7    0.00       0    85.0
 241    0:40   63.0    45    1.4   182      2.3   867.6    0.00       0    85.0
 241    0:50   63.1    44    2.1   187      3.7   867.5    0.00       0    84.8
 241    1:00   62.6    45    2.7   210      4.3   867.5    0.00       0    84.6
 241    1:10   61.6    48    3.2   215      4.8   867.6    0.00       0    84.4
 241    1:20   61.2    48    1.8   200      2.7   867.6    0.00       0    84.2
 241    1:30   61.8    46    2.4   174      4.1   867.7    0.00       0    83.9
 241    1:40   62.6    44    3.0   174      4.3   867.6    0.00       0    83.6
 241    1:50   62.2    44    3.4   148      4.9   867.5    0.00       0    83.2
 241    2:00   62.1    44    2.3   163      3.9   867.5    0.00       0    83.1
 241    2:10   61.8    44    1.5   181      2.8   867.5    0.00       0    82.9
 241    2:20   60.5    48    1.7   203      2.8   867.5    0.00       0    82.7
 241    2:30   60.7    47    1.2   198      2.4   867.5    0.00       0    82.6
 241    2:40   59.7    51    1.8   198      2.5   867.4    0.00       0    82.4
 241    2:50   59.3    51    0.8   196      2.3   867.4    0.00       0    82.3
 241    3:00   60.3    47    1.8   175      4.3   867.4    0.00       0    82.0
 241    3:10   61.2    44    2.4   168      4.0   867.4    0.00       0    81.7
 241    3:20   61.1    44    2.7   175      5.3   867.4    0.00       0    81.4
 241    3:30   60.9    45    2.8   180      4.6   867.4    0.00       0    81.1
 241    3:40   60.0    48    2.7   207      4.9   867.3    0.00       0    80.8
 241    3:50   58.5    52    2.9   175      4.7   867.3    0.00       0    80.7
 241    4:00   58.6    51    3.0   177      4.1   867.3    0.00       0    80.6
 241    4:10   59.7    48    2.6   184      4.5   867.3    0.00       0    80.5
 241    4:20   59.5    48    2.4   188      4.6   867.2    0.00       0    80.3
 241    4:30   58.4    52    2.9   207      5.8   867.3    0.00       0    80.0
 241    4:40   57.7    53    1.9   201      3.9   867.4    0.00       0    79.8
 241    4:50   57.9    52    2.4   197      5.1   867.4    0.00       0    79.9
 241    5:00   58.1    51    2.7   194      4.3   867.5    0.00       0    79.7
 241    5:10   58.6    50    2.1   212      3.9   867.5    0.00       4    79.5
 241    5:20   58.6    51    2.8   219      4.1   867.6    0.00       8    79.2
 241    5:30   58.2    52    2.3   184      3.8   867.7    0.00      15    79.1
 241    5:40   58.9    49    2.4   165      4.1   867.9    0.00      32    78.8
 241    5:50   59.7    48    2.4   163      4.0   867.9    0.00      81    78.6
 241    6:00   61.8    44    1.7   158      2.9   867.8    0.00     103    77.9
 241    6:10   62.4    44    2.1   157      3.4   867.8    0.00     109    77.5
 241    6:20   62.8    45    2.3   173      3.7   868.0    0.00      78    77.1
 241    6:30   63.1    45    2.2   176      4.7   868.0    0.00     168    77.3
 241    6:40   64.8    42    2.7   180      4.2   867.8    0.00     147    76.8
 241    6:50   64.2    43    2.5   171      4.2   867.8    0.00      98    76.6
 241    7:00   64.1    44    2.0   171      3.5   867.8    0.00     112    76.8
 241    7:10   64.8    43    2.2   206      3.8   868.1    0.00     226    77.0
 241    7:20   66.9    41    2.1   170      3.6   868.0    0.00     197    76.6
 241    7:30   67.2    40    1.7   214      2.7   868.0    0.00     201    76.4
 241    7:40   67.0    40    2.3   232      3.6   868.1    0.00     191    76.3
 241    7:50   67.9    40    1.7   229      3.1   868.1    0.00     256    76.3
 241    8:00   69.3    38    2.0   229      3.6   868.1    0.00     348    76.2
 241    8:10   70.3    38    1.9   236      3.5   868.2    0.00     292    75.9
 241    8:20   72.9    34    1.5   225      3.1   868.2    0.00     615    75.7
 241    8:30   75.0    32    1.8   228      3.4   868.3    0.00     374    75.0
 241    8:40   74.2    33    1.5   244      2.6   868.1    0.00     265    75.3
 241    8:50   73.8    36    2.2   250      2.9   868.2    0.00     260    75.9
 241    9:00   73.8    37    2.2   238      3.1   868.2    0.00     294    76.4
 241    9:10   75.2    34    1.6   253      2.7   868.2    0.00     423    76.7
 241    9:20   77.6    28    1.5   252      3.1   868.1    0.00     573    76.6

Return to Yerington, Nevada graphs page.


Western Regional Climate Center,wrcc@dri.edu